Portada
METAR-TAF:

METAR-TAF

Aeroports :

Bamako, Mali

latitud: 12-32N, longitud: 007-57W, altitud: 380 m

Observació

L'informe es va fer fa 48 minuts, a les 13:00 UTC
Vent 4 kt amb direcció variable
Temperatura 35°C
Humitat 18%
Pressió 1014 hPa
Visibilitat 10 km o més
sense núvols per sota de 1500 mi sense presència de cumulonimbus.

METAR: GABS 301300Z VRB04KT CAVOK 35/07 Q1014 NOSIG

Hora: 13:48 (13:48 UTC)

Pronòstic

L'informe es va fer fa 2 hores i 48 minuts, a les 11:00 UTC
Pronòstic vàlid del 30 a les 12 UTC al 31 a les 18 UTC
Vent 6 kt del Est amb ràfegues de 16 kt
Visibilitat: 8000 m

TAF: GABS 301100Z 3012/3118 08006G16KT 8000 NSC

Observacions i pronòstics meteorològics de més de 4000 aeroports (METAR i TAF).

Les estacions disponibles són els punts grocs i vermells al mapa.

Posi el ratolí al punt desitjat per veure el nom de l'estació.

Feu clic per veure les observacions i els pronòstics meteorològics.

Per canviar el mapa: feu clic els botons verds amb una creu de color negre per apropar; al botó verd amb un guió per allunyar la imatge; o en les fletxes verdes per a mapes adjacents.


METAR-TAF: